createdAt,value
2018-06-01T00:02:15.724Z,6.00
2018-06-01T00:04:41.679Z,5.40
2018-06-01T00:07:07.647Z,5.90
2018-06-01T00:09:33.607Z,5.60
2018-06-01T00:11:59.602Z,5.57
2018-06-01T00:14:25.559Z,5.93
2018-06-01T00:16:51.548Z,6.17
2018-06-01T00:19:18.243Z,6.20
2018-06-01T00:21:44.194Z,6.40
2018-06-01T00:24:10.159Z,5.40
2018-06-01T00:26:36.876Z,5.50
2018-06-01T00:29:02.855Z,6.35
2018-06-01T00:31:29.564Z,6.93
2018-06-01T00:33:55.519Z,8.33
2018-06-01T00:36:22.222Z,6.43
2018-06-01T00:38:48.175Z,13.67
2018-06-01T00:41:14.147Z,6.63
2018-06-01T00:43:40.860Z,5.80
2018-06-01T00:46:06.827Z,5.73
2018-06-01T00:48:32.787Z,0.00
2018-06-01T00:50:59.489Z,0.13
2018-06-01T00:53:25.456Z,0.00
2018-06-01T00:55:51.424Z,0.03
2018-06-01T00:58:17.402Z,1.23
2018-06-01T01:00:43.426Z,0.60
2018-06-01T01:03:09.423Z,0.17
2018-06-01T01:05:35.391Z,0.37
2018-06-01T01:08:01.390Z,0.03
2018-06-01T01:10:27.387Z,0.10
2018-06-01T01:12:53.333Z,0.20
2018-06-01T01:15:19.288Z,0.00
2018-06-01T01:17:45.982Z,0.17
2018-06-01T01:20:11.934Z,0.00
2018-06-01T01:22:37.890Z,0.00
2018-06-01T01:25:03.859Z,0.00
2018-06-01T01:27:29.818Z,0.00
2018-06-01T01:29:55.765Z,0.00
2018-06-01T01:32:21.724Z,0.40
2018-06-01T01:34:47.697Z,0.20
2018-06-01T01:37:14.618Z,0.00
2018-06-01T01:39:41.326Z,0.00
2018-06-01T01:42:07.290Z,0.10
2018-06-01T01:44:33.267Z,0.00
2018-06-01T01:46:59.224Z,0.00
2018-06-01T01:49:25.182Z,0.00
2018-06-01T01:51:51.130Z,0.07
2018-06-01T01:54:17.073Z,0.00
2018-06-01T01:56:43.818Z,0.60
2018-06-01T01:59:09.781Z,0.57
2018-06-01T02:01:36.508Z,0.10
2018-06-01T02:04:02.499Z,0.50
2018-06-01T02:06:28.462Z,0.60
2018-06-01T02:08:54.422Z,0.10
2018-06-01T02:11:20.376Z,0.00
2018-06-01T02:13:47.065Z,0.43
2018-06-01T02:16:13.038Z,0.00
2018-06-01T02:18:38.985Z,0.00
2018-06-01T02:21:04.954Z,0.00
2018-06-01T02:23:30.914Z,0.10
2018-06-01T02:25:56.872Z,0.30
2018-06-01T02:28:22.845Z,0.30
2018-06-01T02:30:49.547Z,0.00
2018-06-01T02:33:15.523Z,0.00
2018-06-01T02:35:41.507Z,0.20
2018-06-01T02:38:07.475Z,0.00
2018-06-01T02:40:33.444Z,0.20
2018-06-01T02:42:59.410Z,0.00
2018-06-01T02:45:25.375Z,0.77
2018-06-01T02:47:51.330Z,0.30
2018-06-01T02:50:18.023Z,0.10
2018-06-01T02:52:43.987Z,0.00
2018-06-01T02:55:09.955Z,0.23
2018-06-01T02:57:36.671Z,0.30
2018-06-01T03:00:02.657Z,0.00
2018-06-01T03:02:28.619Z,0.63
2018-06-01T03:04:54.584Z,0.00
2018-06-01T03:07:20.544Z,1.70
2018-06-01T03:09:47.241Z,0.10
2018-06-01T03:12:13.198Z,0.00
2018-06-01T03:14:39.174Z,0.10
2018-06-01T03:17:05.915Z,0.10
2018-06-01T03:19:31.879Z,0.00
2018-06-01T03:21:57.843Z,0.93
2018-06-01T03:24:23.797Z,0.00
2018-06-01T03:26:49.752Z,0.57
2018-06-01T03:29:15.711Z,0.03
2018-06-01T03:31:41.666Z,0.00
2018-06-01T03:34:07.675Z,0.20
2018-06-01T03:36:34.390Z,0.40
2018-06-01T03:39:00.361Z,0.00
2018-06-01T03:41:27.058Z,0.10
2018-06-01T03:43:53.010Z,0.60
2018-06-01T03:46:18.980Z,0.00
2018-06-01T03:48:45.719Z,0.10
2018-06-01T03:51:12.409Z,0.00
2018-06-01T03:53:39.099Z,0.00
2018-06-01T03:56:05.104Z,0.37
2018-06-01T03:58:31.138Z,0.10
2018-06-01T04:00:57.103Z,1.03
2018-06-01T04:03:23.069Z,0.43
2018-06-01T04:05:49.048Z,0.00
2018-06-01T04:08:15.005Z,0.00
2018-06-01T04:10:41.766Z,0.00
2018-06-01T04:13:07.743Z,0.23
2018-06-01T04:15:33.786Z,0.83
2018-06-01T04:17:59.742Z,0.00
2018-06-01T04:20:25.695Z,0.17
2018-06-01T04:22:51.690Z,0.10
2018-06-01T04:25:17.650Z,0.03
2018-06-01T04:27:43.623Z,0.00
2018-06-01T04:30:09.596Z,0.40
2018-06-01T04:32:35.635Z,0.63
2018-06-01T04:35:02.404Z,0.10
2018-06-01T04:37:28.376Z,0.20
2018-06-01T04:39:54.343Z,0.27
2018-06-01T04:42:21.063Z,0.07
2018-06-01T04:44:47.038Z,0.27
2018-06-01T04:47:12.999Z,0.00
2018-06-01T04:49:39.712Z,0.97
2018-06-01T04:52:05.693Z,0.17
2018-06-01T04:54:31.703Z,0.00
2018-06-01T04:56:58.413Z,0.07
2018-06-01T04:59:24.817Z,0.10
2018-06-01T05:01:51.522Z,0.37
2018-06-01T05:04:17.481Z,0.30
2018-06-01T05:06:44.189Z,0.30
2018-06-01T05:09:10.141Z,0.00
2018-06-01T05:11:36.128Z,0.00
2018-06-01T05:14:02.931Z,0.50
2018-06-01T05:16:28.882Z,0.00
2018-06-01T05:18:54.843Z,0.87
2018-06-01T05:21:21.546Z,0.67
2018-06-01T05:23:47.507Z,0.00
2018-06-01T05:26:13.460Z,0.00
2018-06-01T05:28:40.181Z,0.00
2018-06-01T05:31:06.176Z,0.20
2018-06-01T05:33:32.164Z,0.17
2018-06-01T05:35:58.146Z,0.00
2018-06-01T05:38:24.110Z,0.30
2018-06-01T05:40:50.073Z,0.10
2018-06-01T05:43:16.055Z,0.00
2018-06-01T05:45:42.017Z,0.07
2018-06-01T05:48:08.003Z,0.60
2018-06-01T05:50:34.806Z,0.23
2018-06-01T05:53:00.787Z,0.20
2018-06-01T05:55:27.498Z,0.00
2018-06-01T05:57:53.459Z,0.00
2018-06-01T06:00:19.617Z,0.30
2018-06-01T06:02:46.331Z,0.20
2018-06-01T06:05:12.318Z,0.10
2018-06-01T06:07:38.279Z,0.17
2018-06-01T06:10:04.253Z,0.40
2018-06-01T06:12:30.218Z,0.00
2018-06-01T06:14:56.169Z,0.10
2018-06-01T06:17:22.145Z,0.43
2018-06-01T06:19:48.113Z,0.63
2018-06-01T06:22:14.046Z,0.10
2018-06-01T06:24:40.740Z,1.10
2018-06-01T06:27:06.728Z,0.07
2018-06-01T06:29:33.483Z,0.00
2018-06-01T06:31:59.434Z,0.10
2018-06-01T06:34:25.403Z,0.60
2018-06-01T06:36:51.367Z,0.00
2018-06-01T06:39:17.339Z,0.17
2018-06-01T06:41:43.294Z,0.20
2018-06-01T06:44:09.290Z,0.40
2018-06-01T06:46:36.078Z,0.87
2018-06-01T06:49:02.097Z,0.23
2018-06-01T06:51:28.054Z,0.13
2018-06-01T06:53:54.022Z,0.10
2018-06-01T06:56:20.004Z,0.40
2018-06-01T06:58:46.703Z,0.70
2018-06-01T07:01:12.794Z,0.20
2018-06-01T07:03:38.758Z,0.27
2018-06-01T07:06:04.766Z,0.00
2018-06-01T07:08:30.743Z,0.87
2018-06-01T07:10:56.698Z,1.23
2018-06-01T07:13:22.687Z,0.33
2018-06-01T07:15:48.647Z,0.07
2018-06-01T07:18:14.655Z,0.40
2018-06-01T07:20:41.322Z,0.10
2018-06-01T07:23:07.316Z,0.00
2018-06-01T07:25:33.376Z,0.23
2018-06-01T07:27:59.341Z,0.00
2018-06-01T07:30:25.304Z,0.30
2018-06-01T07:32:51.250Z,0.10
2018-06-01T07:35:17.955Z,0.30
2018-06-01T07:37:43.916Z,0.10
2018-06-01T07:40:10.630Z,0.10
2018-06-01T07:42:36.619Z,0.77
2018-06-01T07:45:02.671Z,0.33
2018-06-01T07:47:29.376Z,0.23
2018-06-01T07:49:55.350Z,0.10
2018-06-01T07:52:22.057Z,0.30
2018-06-01T07:54:48.058Z,0.00
2018-06-01T07:57:14.018Z,0.20
2018-06-01T07:59:39.978Z,0.20
2018-06-01T08:02:06.137Z,0.10
2018-06-01T08:04:32.125Z,0.73
2018-06-01T08:06:58.092Z,0.30
2018-06-01T08:09:24.054Z,0.10
2018-06-01T08:11:50.768Z,0.00
2018-06-01T08:14:16.734Z,0.37
2018-06-01T08:16:43.436Z,0.30
2018-06-01T08:19:09.417Z,0.70
2018-06-01T08:21:35.423Z,0.40
2018-06-01T08:24:01.503Z,0.40
2018-06-01T08:26:27.482Z,0.20
2018-06-01T08:28:53.456Z,1.17
2018-06-01T08:31:19.448Z,1.00
2018-06-01T08:33:45.433Z,0.22
2018-06-01T08:36:12.891Z,0.22
2018-06-01T08:38:38.917Z,0.07
2018-06-01T08:41:04.920Z,0.83
2018-06-01T08:43:30.883Z,0.20
2018-06-01T08:45:56.838Z,0.20
2018-06-01T08:48:22.808Z,0.20
2018-06-01T08:50:48.779Z,0.17
2018-06-01T08:53:14.738Z,0.15
2018-06-01T08:55:40.721Z,0.53
2018-06-01T08:58:06.695Z,0.30
2018-06-01T09:00:32.687Z,0.20
2018-06-01T09:02:58.669Z,0.20
2018-06-01T09:05:24.621Z,0.63
2018-06-01T09:07:50.584Z,0.50
2018-06-01T09:10:17.311Z,0.50
2018-06-01T09:12:43.242Z,0.10
2018-06-01T09:15:09.219Z,0.13
2018-06-01T09:17:35.258Z,0.10
2018-06-01T09:20:01.281Z,0.17
2018-06-01T09:22:27.265Z,0.50
2018-06-01T09:24:53.230Z,0.47
2018-06-01T09:27:19.182Z,0.37
2018-06-01T09:29:45.888Z,0.33
2018-06-01T09:32:11.854Z,0.30
2018-06-01T09:34:37.987Z,0.60
2018-06-01T09:37:04.037Z,0.53
2018-06-01T09:39:30.738Z,0.17
2018-06-01T09:41:56.696Z,0.57
2018-06-01T09:44:22.664Z,0.10
2018-06-01T09:46:49.360Z,0.20
2018-06-01T09:49:15.339Z,0.10
2018-06-01T09:51:42.071Z,0.28
2018-06-01T09:54:08.086Z,0.32
2018-06-01T09:56:34.077Z,0.10
2018-06-01T09:59:00.779Z,0.97
2018-06-01T10:01:27.554Z,0.10
2018-06-01T10:03:53.661Z,0.20
2018-06-01T10:06:20.362Z,0.08
2018-06-01T10:08:47.072Z,0.60
2018-06-01T10:11:13.039Z,0.25
2018-06-01T10:13:39.006Z,0.17
2018-06-01T10:16:05.738Z,0.00
2018-06-01T10:18:31.809Z,0.00
2018-06-01T10:20:57.762Z,0.43
2018-06-01T10:23:23.730Z,0.00
2018-06-01T10:25:49.692Z,0.35
2018-06-01T10:28:16.403Z,0.22
2018-06-01T10:30:42.367Z,1.23
2018-06-01T10:33:09.086Z,0.13
2018-06-01T10:35:35.095Z,0.05
2018-06-01T10:38:01.063Z,0.13
2018-06-01T10:40:27.034Z,0.30
2018-06-01T10:42:53.739Z,0.10
2018-06-01T10:45:19.727Z,0.10
2018-06-01T10:47:45.674Z,0.47
2018-06-01T10:50:12.378Z,0.03
2018-06-01T10:52:38.398Z,0.13
2018-06-01T10:55:04.613Z,0.52
2018-06-01T10:57:30.537Z,1.35
2018-06-01T10:59:56.510Z,0.10
2018-06-01T11:02:22.471Z,0.30
2018-06-01T11:04:48.440Z,0.28
2018-06-01T11:07:15.143Z,0.20
2018-06-01T11:09:41.104Z,0.00
2018-06-01T11:12:07.904Z,0.08
2018-06-01T11:14:33.992Z,0.10
2018-06-01T11:16:59.912Z,0.13
2018-06-01T11:19:25.864Z,0.13
2018-06-01T11:21:52.570Z,0.10
2018-06-01T11:24:18.531Z,0.37
2018-06-01T11:26:44.492Z,0.10
2018-06-01T11:29:10.458Z,0.60
2018-06-01T11:31:36.499Z,0.07
2018-06-01T11:34:02.550Z,0.03
2018-06-01T11:36:28.505Z,0.07
2018-06-01T11:38:54.463Z,0.10
2018-06-01T11:41:20.435Z,1.03
2018-06-01T11:43:46.400Z,0.10
2018-06-01T11:46:12.404Z,0.53
2018-06-01T11:48:38.341Z,0.20
2018-06-01T11:51:04.347Z,0.10
2018-06-01T11:53:31.060Z,0.80
2018-06-01T11:55:57.018Z,0.25
2018-06-01T11:58:22.998Z,0.17
2018-06-01T12:00:48.962Z,0.20
2018-06-01T12:03:14.987Z,0.60
2018-06-01T12:05:40.910Z,0.28
2018-06-01T12:08:06.935Z,0.13
2018-06-01T12:10:32.960Z,0.10
2018-06-01T12:12:59.663Z,0.32
2018-06-01T12:15:25.618Z,0.15
2018-06-01T12:17:51.685Z,0.20
2018-06-01T12:20:17.593Z,0.32
2018-06-01T12:22:43.566Z,0.32
2018-06-01T12:25:09.556Z,0.20
2018-06-01T12:27:35.554Z,0.20
2018-06-01T12:30:01.530Z,0.40
2018-06-01T12:32:28.245Z,0.25
2018-06-01T12:34:54.198Z,0.62
2018-06-01T12:37:20.172Z,0.10
2018-06-01T12:39:46.882Z,0.20
2018-06-01T12:42:12.846Z,0.47
2018-06-01T12:44:38.829Z,0.20
2018-06-01T12:47:04.842Z,0.43
2018-06-01T12:49:31.597Z,0.00
2018-06-01T12:51:58.307Z,0.20
2018-06-01T12:54:24.287Z,0.30
2018-06-01T12:56:50.991Z,0.35
2018-06-01T12:59:17.891Z,0.10
2018-06-01T13:01:44.628Z,0.20
2018-06-01T13:04:10.609Z,2.47
2018-06-01T13:06:36.601Z,2.55
2018-06-01T13:09:02.690Z,2.40
2018-06-01T13:11:28.683Z,2.28
2018-06-01T13:13:55.376Z,3.55
2018-06-01T13:16:21.340Z,1.87
2018-06-01T13:18:47.301Z,2.37
2018-06-01T13:21:14.007Z,2.00
2018-06-01T13:23:39.962Z,2.42
2018-06-01T13:26:05.977Z,2.20
2018-06-01T13:28:32.053Z,2.42
2018-06-01T13:30:58.013Z,2.40
2018-06-01T13:33:24.706Z,2.17
2018-06-01T13:35:50.679Z,2.08
2018-06-01T13:38:16.629Z,1.55
2018-06-01T13:40:43.360Z,1.98
2018-06-01T13:43:09.387Z,1.90
2018-06-01T13:45:36.114Z,1.80
2018-06-01T13:48:02.090Z,2.40
2018-06-01T13:50:28.962Z,1.92
2018-06-01T13:52:55.658Z,2.10
2018-06-01T13:55:21.621Z,1.70
2018-06-01T13:57:47.589Z,2.08
2018-06-01T14:00:14.324Z,1.83
2018-06-01T14:02:41.062Z,2.10
2018-06-01T14:05:07.062Z,2.15
2018-06-01T14:07:33.071Z,1.58
2018-06-01T14:09:59.021Z,1.90
2018-06-01T14:12:24.982Z,2.10
2018-06-01T14:14:50.945Z,2.08
2018-06-01T14:17:17.647Z,1.83
2018-06-01T14:19:43.620Z,2.10
2018-06-01T14:22:09.574Z,1.70
2018-06-01T14:24:35.602Z,1.60
2018-06-01T14:27:01.566Z,1.87
2018-06-01T14:29:27.523Z,2.05
2018-06-01T14:31:53.490Z,1.80
2018-06-01T14:34:19.468Z,1.87
2018-06-01T14:36:46.234Z,1.75
2018-06-01T14:39:12.203Z,1.70
2018-06-01T14:41:38.219Z,2.15
2018-06-01T14:44:04.374Z,1.98
2018-06-01T14:46:30.343Z,1.70
2018-06-01T14:48:56.336Z,1.45
2018-06-01T14:51:22.314Z,1.85
2018-06-01T14:53:48.285Z,1.30
2018-06-01T14:56:14.580Z,1.45
2018-06-01T14:58:40.566Z,1.52
2018-06-01T15:01:06.564Z,1.85
2018-06-01T15:03:32.627Z,1.75
2018-06-01T15:05:59.317Z,1.65
2018-06-01T15:08:25.362Z,1.60
2018-06-01T15:10:51.332Z,1.70
2018-06-01T15:13:18.078Z,1.50
2018-06-01T15:15:44.035Z,2.40
2018-06-01T15:18:10.749Z,2.10
2018-06-01T15:20:36.762Z,1.90
2018-06-01T15:23:02.783Z,2.72
2018-06-01T15:25:28.744Z,2.08
2018-06-01T15:27:54.706Z,1.65
2018-06-01T15:30:21.401Z,1.73
2018-06-01T15:32:47.370Z,1.80
2018-06-01T15:35:13.346Z,1.67
2018-06-01T15:37:40.094Z,1.48
2018-06-01T15:40:06.839Z,1.58
2018-06-01T15:42:32.862Z,1.87
2018-06-01T15:44:58.830Z,1.90
2018-06-01T15:47:25.520Z,1.80
2018-06-01T15:49:51.481Z,1.70
2018-06-01T15:52:17.466Z,1.67
2018-06-01T15:54:43.438Z,1.60
2018-06-01T15:57:09.502Z,1.58
2018-06-01T15:59:36.225Z,2.10
2018-06-01T16:02:02.329Z,2.25
2018-06-01T16:04:28.321Z,1.77
2018-06-01T16:06:54.323Z,2.05
2018-06-01T16:09:20.343Z,1.75
2018-06-01T16:11:46.299Z,1.33
2018-06-01T16:14:12.266Z,1.87
2018-06-01T16:16:38.287Z,2.22
2018-06-01T16:19:04.328Z,1.95
2018-06-01T16:21:30.304Z,2.33
2018-06-01T16:23:57.008Z,1.95
2018-06-01T16:26:22.971Z,1.90
2018-06-01T16:28:48.938Z,1.70
2018-06-01T16:31:14.900Z,1.80
2018-06-01T16:33:40.869Z,2.08
2018-06-01T16:36:06.895Z,2.40
2018-06-01T16:38:32.911Z,1.83
2018-06-01T16:40:58.875Z,1.60
2018-06-01T16:43:24.843Z,1.90
2018-06-01T16:45:50.811Z,2.60
2018-06-01T16:48:16.765Z,2.22
2018-06-01T16:50:42.714Z,1.70
2018-06-01T16:53:08.781Z,1.75
2018-06-01T16:55:34.787Z,2.15
2018-06-01T16:58:00.758Z,2.00
2018-06-01T17:00:26.726Z,2.12
2018-06-01T17:02:52.678Z,2.30
2018-06-01T17:05:18.637Z,1.95
2018-06-01T17:07:45.362Z,1.80
2018-06-01T17:10:11.333Z,2.15
2018-06-01T17:12:38.119Z,2.12
2018-06-01T17:15:04.112Z,1.95
2018-06-01T17:17:30.098Z,2.22
2018-06-01T17:19:56.054Z,2.00
2018-06-01T17:22:22.022Z,2.20
2018-06-01T17:24:48.730Z,2.33
2018-06-01T17:27:14.714Z,2.30
2018-06-01T17:29:41.419Z,2.28
2018-06-01T17:32:07.455Z,2.20
2018-06-01T17:34:33.554Z,2.42
2018-06-01T17:37:00.279Z,2.58
2018-06-01T17:39:26.466Z,2.20
2018-06-01T17:41:52.450Z,2.22
2018-06-01T17:44:18.424Z,2.25
2018-06-01T17:46:45.121Z,2.30
2018-06-01T17:49:11.078Z,2.23
2018-06-01T17:51:38.610Z,2.57
2018-06-01T17:54:04.701Z,2.40
2018-06-01T17:56:31.415Z,2.50
2018-06-01T17:58:57.380Z,2.60
2018-06-01T18:01:24.113Z,2.23
2018-06-01T18:03:50.146Z,2.57
2018-06-01T18:06:16.186Z,2.60
2018-06-01T18:08:42.151Z,2.57
2018-06-01T18:11:08.900Z,3.07
2018-06-01T18:13:34.905Z,2.10
2018-06-01T18:16:00.905Z,2.27
2018-06-01T18:18:26.927Z,2.30
2018-06-01T18:20:52.901Z,2.00
2018-06-01T18:23:18.904Z,2.80
2018-06-01T18:25:44.921Z,2.60
2018-06-01T18:28:10.907Z,2.13
2018-06-01T18:30:36.867Z,2.57
2018-06-01T18:33:02.827Z,1.93
2018-06-01T18:35:29.551Z,2.20
2018-06-01T18:37:55.534Z,1.73
2018-06-01T18:40:21.534Z,2.20
2018-06-01T18:42:47.532Z,2.10
2018-06-01T18:45:13.607Z,1.67
2018-06-01T18:47:40.380Z,1.53
2018-06-01T18:50:07.108Z,1.80
2018-06-01T18:52:33.822Z,1.80
2018-06-01T18:54:59.807Z,1.80
2018-06-01T18:57:25.806Z,1.70
2018-06-01T18:59:51.911Z,1.80
2018-06-01T19:02:18.051Z,1.40
2018-06-01T19:04:44.240Z,1.90
2018-06-01T19:07:10.207Z,1.80
2018-06-01T19:09:36.916Z,2.13
2018-06-01T19:12:02.949Z,1.70
2018-06-01T19:14:28.910Z,1.70
2018-06-01T19:16:55.004Z,1.50
2018-06-01T19:19:20.982Z,1.90
2018-06-01T19:21:46.966Z,1.87
2018-06-01T19:24:12.918Z,2.57
2018-06-01T19:26:38.906Z,1.90
2018-06-01T19:29:04.890Z,1.63
2018-06-01T19:31:30.854Z,1.97
2018-06-01T19:33:56.824Z,1.93
2018-06-01T19:36:23.536Z,2.20
2018-06-01T19:38:49.506Z,2.10
2018-06-01T19:41:16.587Z,2.20
2018-06-01T19:43:42.642Z,2.40
2018-06-01T19:46:08.728Z,1.77
2018-06-01T19:48:35.605Z,2.03
2018-06-01T19:51:01.686Z,2.17
2018-06-01T19:53:27.650Z,2.37
2018-06-01T19:55:53.600Z,2.10
2018-06-01T19:58:20.377Z,2.30
2018-06-01T20:00:46.409Z,2.20
2018-06-01T20:03:12.374Z,1.70
2018-06-01T20:05:38.351Z,1.70
2018-06-01T20:08:04.516Z,1.73
2018-06-01T20:10:30.530Z,2.20
2018-06-01T20:12:57.238Z,2.30
2018-06-01T20:15:23.202Z,2.07
2018-06-01T20:17:49.206Z,2.60
2018-06-01T20:20:15.944Z,2.23
2018-06-01T20:22:41.916Z,2.17
2018-06-01T20:25:07.894Z,2.13
2018-06-01T20:27:34.637Z,2.73
2018-06-01T20:30:01.343Z,2.30
2018-06-01T20:32:27.678Z,2.20
2018-06-01T20:34:53.647Z,2.10
2018-06-01T20:37:21.095Z,2.80
2018-06-01T20:39:47.093Z,2.50
2018-06-01T20:42:13.063Z,2.63
2018-06-01T20:44:39.009Z,2.27
2018-06-01T20:47:04.994Z,2.40
2018-06-01T20:49:31.104Z,2.47
2018-06-01T20:51:57.073Z,2.50
2018-06-01T20:54:23.410Z,3.00
2018-06-01T20:56:49.469Z,3.40
2018-06-01T20:59:15.452Z,3.10
2018-06-01T21:01:42.168Z,2.93
2018-06-01T21:04:08.128Z,2.50
2018-06-01T21:06:34.817Z,2.80
2018-06-01T21:09:00.829Z,2.90
2018-06-01T21:11:26.777Z,2.80
2018-06-01T21:13:53.479Z,2.60
2018-06-01T21:16:19.433Z,2.60
2018-06-01T21:18:45.453Z,2.93
2018-06-01T21:21:11.547Z,2.93
2018-06-01T21:23:37.458Z,2.60
2018-06-01T21:26:05.049Z,2.70
2018-06-01T21:28:31.037Z,2.90
2018-06-01T21:30:57.006Z,3.00
2018-06-01T21:33:23.024Z,3.17
2018-06-01T21:35:49.015Z,3.67
2018-06-01T21:38:15.002Z,3.30
2018-06-01T21:40:40.943Z,2.83
2018-06-01T21:43:06.978Z,3.30
2018-06-01T21:45:32.951Z,3.40
2018-06-01T21:47:58.905Z,3.67
2018-06-01T21:50:24.863Z,3.30
2018-06-01T21:52:50.848Z,4.17
2018-06-01T21:55:17.715Z,3.40
2018-06-01T21:57:43.667Z,3.43
2018-06-01T22:00:09.653Z,3.97
2018-06-01T22:02:35.646Z,3.50
2018-06-01T22:05:02.646Z,3.23
2018-06-01T22:07:28.681Z,3.87
2018-06-01T22:09:54.717Z,3.50
2018-06-01T22:12:20.741Z,3.67
2018-06-01T22:14:47.226Z,3.00
2018-06-01T22:17:13.303Z,3.37
2018-06-01T22:19:39.285Z,3.97
2018-06-01T22:22:06.000Z,3.20
2018-06-01T22:24:31.966Z,3.67
2018-06-01T22:26:58.670Z,3.70
2018-06-01T22:29:24.651Z,3.60
2018-06-01T22:31:50.729Z,3.10
2018-06-01T22:34:16.744Z,3.10
2018-06-01T22:36:42.725Z,3.50
2018-06-01T22:39:08.802Z,2.77
2018-06-01T22:41:35.604Z,3.67
2018-06-01T22:44:01.574Z,3.40
2018-06-01T22:46:27.576Z,3.20
2018-06-01T22:48:53.547Z,3.33
2018-06-01T22:51:19.563Z,4.13
2018-06-01T22:53:45.534Z,3.53
2018-06-01T22:56:12.258Z,3.20
2018-06-01T22:58:38.226Z,3.23
2018-06-01T23:01:04.958Z,3.13
2018-06-01T23:03:30.935Z,3.20
2018-06-01T23:05:56.886Z,3.50
2018-06-01T23:08:22.879Z,3.60
2018-06-01T23:10:49.638Z,3.70
2018-06-01T23:13:16.442Z,3.03
2018-06-01T23:15:42.423Z,3.23
2018-06-01T23:18:08.376Z,3.23
2018-06-01T23:20:34.338Z,3.40
2018-06-01T23:23:00.295Z,3.20
2018-06-01T23:25:26.271Z,2.90
2018-06-01T23:27:53.021Z,3.43
2018-06-01T23:30:19.774Z,3.60
2018-06-01T23:32:46.537Z,3.60
2018-06-01T23:35:12.510Z,3.47
2018-06-01T23:37:38.473Z,3.33
2018-06-01T23:40:05.185Z,3.67
2018-06-01T23:42:31.156Z,3.80
2018-06-01T23:44:57.110Z,3.23
2018-06-01T23:47:23.073Z,3.37
2018-06-01T23:49:49.834Z,4.07
2018-06-01T23:52:15.858Z,3.37
2018-06-01T23:54:42.578Z,3.33
2018-06-01T23:57:08.594Z,3.03
2018-06-01T23:59:34.561Z,3.27
